sensor_id;sensor_type;location;lat;lon;timestamp;temperature;humidity
9450;DHT22;4763;48.370;10.874;2023-02-19T00:02:23;10.70;99.90
9450;DHT22;4763;48.370;10.874;2023-02-19T00:05:11;10.60;99.90
9450;DHT22;4763;48.370;10.874;2023-02-19T00:07:59;10.60;99.90
9450;DHT22;4763;48.370;10.874;2023-02-19T00:10:46;10.60;99.90
9450;DHT22;4763;48.370;10.874;2023-02-19T00:13:34;10.60;99.90
9450;DHT22;4763;48.370;10.874;2023-02-19T00:16:24;10.60;99.90
9450;DHT22;4763;48.370;10.874;2023-02-19T00:19:13;10.50;99.90
9450;DHT22;4763;48.370;10.874;2023-02-19T00:22:01;10.60;99.90
9450;DHT22;4763;48.370;10.874;2023-02-19T00:24:48;10.50;99.90
9450;DHT22;4763;48.370;10.874;2023-02-19T00:27:35;10.50;99.90
9450;DHT22;4763;48.370;10.874;2023-02-19T00:30:22;10.60;99.90
9450;DHT22;4763;48.370;10.874;2023-02-19T00:33:09;10.60;99.90
9450;DHT22;4763;48.370;10.874;2023-02-19T00:35:59;10.50;99.90
9450;DHT22;4763;48.370;10.874;2023-02-19T00:38:48;10.50;99.90
9450;DHT22;4763;48.370;10.874;2023-02-19T00:41:35;10.50;99.90
9450;DHT22;4763;48.370;10.874;2023-02-19T00:44:22;10.50;99.90
9450;DHT22;4763;48.370;10.874;2023-02-19T00:47:09;10.50;99.90
9450;DHT22;4763;48.370;10.874;2023-02-19T00:49:56;10.50;99.90
9450;DHT22;4763;48.370;10.874;2023-02-19T00:52:43;10.50;99.90
9450;DHT22;4763;48.370;10.874;2023-02-19T00:55:31;10.60;99.90
9450;DHT22;4763;48.370;10.874;2023-02-19T00:58:18;10.50;99.90
9450;DHT22;4763;48.370;10.874;2023-02-19T01:01:06;10.60;99.90
9450;DHT22;4763;48.370;10.874;2023-02-19T01:03:53;10.40;99.90
9450;DHT22;4763;48.370;10.874;2023-02-19T01:06:40;10.40;99.90
9450;DHT22;4763;48.370;10.874;2023-02-19T01:09:27;10.50;99.90
9450;DHT22;4763;48.370;10.874;2023-02-19T01:12:16;10.50;99.90
9450;DHT22;4763;48.370;10.874;2023-02-19T01:15:03;10.50;99.90
9450;DHT22;4763;48.370;10.874;2023-02-19T01:17:50;10.40;99.90
9450;DHT22;4763;48.370;10.874;2023-02-19T01:20:38;10.50;99.90
9450;DHT22;4763;48.370;10.874;2023-02-19T01:23:26;10.50;99.90
9450;DHT22;4763;48.370;10.874;2023-02-19T01:26:15;10.40;99.90
9450;DHT22;4763;48.370;10.874;2023-02-19T01:29:04;10.50;99.90
9450;DHT22;4763;48.370;10.874;2023-02-19T01:31:51;10.50;99.90
9450;DHT22;4763;48.370;10.874;2023-02-19T01:34:38;10.50;99.90
9450;DHT22;4763;48.370;10.874;2023-02-19T01:37:25;10.50;99.90
9450;DHT22;4763;48.370;10.874;2023-02-19T01:40:12;10.50;99.90
9450;DHT22;4763;48.370;10.874;2023-02-19T01:42:59;10.60;99.90
9450;DHT22;4763;48.370;10.874;2023-02-19T01:45:49;10.50;99.90
9450;DHT22;4763;48.370;10.874;2023-02-19T01:48:37;10.50;99.90
9450;DHT22;4763;48.370;10.874;2023-02-19T01:51:25;10.50;99.90
9450;DHT22;4763;48.370;10.874;2023-02-19T01:54:15;10.50;99.90
9450;DHT22;4763;48.370;10.874;2023-02-19T01:57:06;10.50;99.90
9450;DHT22;4763;48.370;10.874;2023-02-19T01:59:58;10.50;99.90
9450;DHT22;4763;48.370;10.874;2023-02-19T02:02:51;10.50;99.90
9450;DHT22;4763;48.370;10.874;2023-02-19T02:05:46;10.50;99.90
9450;DHT22;4763;48.370;10.874;2023-02-19T02:08:36;10.50;99.90
9450;DHT22;4763;48.370;10.874;2023-02-19T02:11:44;10.50;99.90
9450;DHT22;4763;48.370;10.874;2023-02-19T02:14:36;10.40;99.90
9450;DHT22;4763;48.370;10.874;2023-02-19T02:17:25;10.50;99.90
9450;DHT22;4763;48.370;10.874;2023-02-19T02:20:30;10.40;99.90
9450;DHT22;4763;48.370;10.874;2023-02-19T02:23:24;10.40;99.90
9450;DHT22;4763;48.370;10.874;2023-02-19T02:26:24;10.40;99.90
9450;DHT22;4763;48.370;10.874;2023-02-19T02:29:31;10.30;99.90
9450;DHT22;4763;48.370;10.874;2023-02-19T02:32:25;10.30;99.90
9450;DHT22;4763;48.370;10.874;2023-02-19T02:35:13;10.40;99.90
9450;DHT22;4763;48.370;10.874;2023-02-19T02:38:07;10.30;99.90
9450;DHT22;4763;48.370;10.874;2023-02-19T02:40:56;10.20;99.90
9450;DHT22;4763;48.370;10.874;2023-02-19T02:43:45;10.10;99.90
9450;DHT22;4763;48.370;10.874;2023-02-19T02:46:34;10.10;99.90
9450;DHT22;4763;48.370;10.874;2023-02-19T02:49:24;10.00;99.90
9450;DHT22;4763;48.370;10.874;2023-02-19T02:52:12;10.10;99.90
9450;DHT22;4763;48.370;10.874;2023-02-19T02:55:23;10.00;99.90
9450;DHT22;4763;48.370;10.874;2023-02-19T02:58:10;10.00;99.90
9450;DHT22;4763;48.370;10.874;2023-02-19T03:01:01;9.90;99.90
9450;DHT22;4763;48.370;10.874;2023-02-19T03:04:10;9.90;99.90
9450;DHT22;4763;48.370;10.874;2023-02-19T03:07:04;9.80;99.90
9450;DHT22;4763;48.370;10.874;2023-02-19T03:09:54;9.80;99.90
9450;DHT22;4763;48.370;10.874;2023-02-19T03:12:44;9.70;99.90
9450;DHT22;4763;48.370;10.874;2023-02-19T03:15:53;9.60;99.90
9450;DHT22;4763;48.370;10.874;2023-02-19T03:19:00;9.60;99.90
9450;DHT22;4763;48.370;10.874;2023-02-19T03:22:10;9.50;99.90
9450;DHT22;4763;48.370;10.874;2023-02-19T03:25:02;9.50;99.90
9450;DHT22;4763;48.370;10.874;2023-02-19T03:28:10;9.40;99.90
9450;DHT22;4763;48.370;10.874;2023-02-19T03:30:58;9.40;99.90
9450;DHT22;4763;48.370;10.874;2023-02-19T03:33:49;9.30;99.90
9450;DHT22;4763;48.370;10.874;2023-02-19T03:36:41;9.30;99.90
9450;DHT22;4763;48.370;10.874;2023-02-19T03:39:31;9.30;99.90
9450;DHT22;4763;48.370;10.874;2023-02-19T03:42:35;9.20;99.90
9450;DHT22;4763;48.370;10.874;2023-02-19T03:45:36;9.20;99.90
9450;DHT22;4763;48.370;10.874;2023-02-19T03:48:32;9.20;99.90
9450;DHT22;4763;48.370;10.874;2023-02-19T03:51:28;9.20;99.90
9450;DHT22;4763;48.370;10.874;2023-02-19T03:54:21;9.10;99.90
9450;DHT22;4763;48.370;10.874;2023-02-19T03:57:15;9.10;99.90
9450;DHT22;4763;48.370;10.874;2023-02-19T04:00:07;9.10;99.90
9450;DHT22;4763;48.370;10.874;2023-02-19T04:02:57;9.00;99.90
9450;DHT22;4763;48.370;10.874;2023-02-19T04:05:47;9.00;99.90
9450;DHT22;4763;48.370;10.874;2023-02-19T04:08:36;9.00;99.90
9450;DHT22;4763;48.370;10.874;2023-02-19T04:11:25;9.00;99.90
9450;DHT22;4763;48.370;10.874;2023-02-19T04:14:17;8.90;99.90
9450;DHT22;4763;48.370;10.874;2023-02-19T04:17:08;8.90;99.90
9450;DHT22;4763;48.370;10.874;2023-02-19T04:19:59;8.80;99.90
9450;DHT22;4763;48.370;10.874;2023-02-19T04:22:48;8.90;99.90
9450;DHT22;4763;48.370;10.874;2023-02-19T04:25:37;8.90;99.90
9450;DHT22;4763;48.370;10.874;2023-02-19T04:28:27;8.80;99.90
9450;DHT22;4763;48.370;10.874;2023-02-19T04:31:15;8.80;99.90
9450;DHT22;4763;48.370;10.874;2023-02-19T04:34:03;8.80;99.90
9450;DHT22;4763;48.370;10.874;2023-02-19T04:36:50;8.80;99.90
9450;DHT22;4763;48.370;10.874;2023-02-19T04:39:37;8.90;99.90
9450;DHT22;4763;48.370;10.874;2023-02-19T04:42:24;8.80;99.90
9450;DHT22;4763;48.370;10.874;2023-02-19T04:45:11;8.80;99.90
9450;DHT22;4763;48.370;10.874;2023-02-19T04:47:59;8.80;99.90
9450;DHT22;4763;48.370;10.874;2023-02-19T04:50:46;8.80;99.90
9450;DHT22;4763;48.370;10.874;2023-02-19T04:53:34;8.80;99.90
9450;DHT22;4763;48.370;10.874;2023-02-19T04:56:21;8.80;99.90
9450;DHT22;4763;48.370;10.874;2023-02-19T04:59:09;8.80;99.90
9450;DHT22;4763;48.370;10.874;2023-02-19T05:01:56;8.90;99.90
9450;DHT22;4763;48.370;10.874;2023-02-19T05:04:44;8.80;99.90
9450;DHT22;4763;48.370;10.874;2023-02-19T05:07:32;8.90;99.90
9450;DHT22;4763;48.370;10.874;2023-02-19T05:10:19;8.90;99.90
9450;DHT22;4763;48.370;10.874;2023-02-19T05:13:06;8.80;99.90
9450;DHT22;4763;48.370;10.874;2023-02-19T05:15:55;8.80;99.90
9450;DHT22;4763;48.370;10.874;2023-02-19T05:18:43;8.80;99.90
9450;DHT22;4763;48.370;10.874;2023-02-19T05:21:31;8.80;99.90
9450;DHT22;4763;48.370;10.874;2023-02-19T05:24:19;8.90;99.90
9450;DHT22;4763;48.370;10.874;2023-02-19T05:27:06;8.90;99.90
9450;DHT22;4763;48.370;10.874;2023-02-19T05:29:53;8.90;99.90
9450;DHT22;4763;48.370;10.874;2023-02-19T05:32:40;8.90;99.90
9450;DHT22;4763;48.370;10.874;2023-02-19T05:35:27;8.90;99.90
9450;DHT22;4763;48.370;10.874;2023-02-19T05:38:16;8.80;99.90
9450;DHT22;4763;48.370;10.874;2023-02-19T05:41:08;8.90;99.90
9450;DHT22;4763;48.370;10.874;2023-02-19T05:43:56;8.80;99.90
9450;DHT22;4763;48.370;10.874;2023-02-19T05:46:43;8.80;99.90
9450;DHT22;4763;48.370;10.874;2023-02-19T05:49:30;8.80;99.90
9450;DHT22;4763;48.370;10.874;2023-02-19T05:52:17;8.80;99.90
9450;DHT22;4763;48.370;10.874;2023-02-19T05:55:06;8.80;99.90
9450;DHT22;4763;48.370;10.874;2023-02-19T05:57:53;8.80;99.90
9450;DHT22;4763;48.370;10.874;2023-02-19T06:00:40;8.80;99.90
9450;DHT22;4763;48.370;10.874;2023-02-19T06:03:27;8.80;99.90
9450;DHT22;4763;48.370;10.874;2023-02-19T06:06:16;8.80;99.90
9450;DHT22;4763;48.370;10.874;2023-02-19T06:09:04;8.80;99.90
9450;DHT22;4763;48.370;10.874;2023-02-19T06:11:52;8.80;99.90
9450;DHT22;4763;48.370;10.874;2023-02-19T06:14:39;8.80;99.90
9450;DHT22;4763;48.370;10.874;2023-02-19T06:17:26;8.80;99.90
9450;DHT22;4763;48.370;10.874;2023-02-19T06:20:13;8.70;99.90
9450;DHT22;4763;48.370;10.874;2023-02-19T06:23:00;8.70;99.90
9450;DHT22;4763;48.370;10.874;2023-02-19T06:25:47;8.60;99.90
9450;DHT22;4763;48.370;10.874;2023-02-19T06:28:36;8.70;99.90
9450;DHT22;4763;48.370;10.874;2023-02-19T06:31:23;8.60;99.90
9450;DHT22;4763;48.370;10.874;2023-02-19T06:34:10;8.60;99.90
9450;DHT22;4763;48.370;10.874;2023-02-19T06:36:58;8.60;99.90
9450;DHT22;4763;48.370;10.874;2023-02-19T06:39:45;8.60;99.90
9450;DHT22;4763;48.370;10.874;2023-02-19T06:42:32;8.50;99.90
9450;DHT22;4763;48.370;10.874;2023-02-19T06:45:20;8.50;99.90
9450;DHT22;4763;48.370;10.874;2023-02-19T06:48:07;8.50;99.90
9450;DHT22;4763;48.370;10.874;2023-02-19T06:50:55;8.50;99.90
9450;DHT22;4763;48.370;10.874;2023-02-19T06:53:42;8.40;99.90
9450;DHT22;4763;48.370;10.874;2023-02-19T06:56:30;8.30;99.90
9450;DHT22;4763;48.370;10.874;2023-02-19T06:59:20;8.30;99.90
9450;DHT22;4763;48.370;10.874;2023-02-19T07:02:10;8.30;99.90
9450;DHT22;4763;48.370;10.874;2023-02-19T07:04:57;8.30;99.90
9450;DHT22;4763;48.370;10.874;2023-02-19T07:07:44;8.30;99.90
9450;DHT22;4763;48.370;10.874;2023-02-19T07:10:32;8.30;99.90
9450;DHT22;4763;48.370;10.874;2023-02-19T07:13:19;8.20;99.90
9450;DHT22;4763;48.370;10.874;2023-02-19T07:16:08;8.30;99.90
9450;DHT22;4763;48.370;10.874;2023-02-19T07:18:58;8.30;99.90
9450;DHT22;4763;48.370;10.874;2023-02-19T07:21:45;8.20;99.90
9450;DHT22;4763;48.370;10.874;2023-02-19T07:24:32;8.30;99.90
9450;DHT22;4763;48.370;10.874;2023-02-19T07:27:19;8.30;99.90
9450;DHT22;4763;48.370;10.874;2023-02-19T07:30:07;8.30;99.90
9450;DHT22;4763;48.370;10.874;2023-02-19T07:32:54;8.20;99.90
9450;DHT22;4763;48.370;10.874;2023-02-19T07:35:45;8.30;99.90
9450;DHT22;4763;48.370;10.874;2023-02-19T07:38:33;8.30;99.90
9450;DHT22;4763;48.370;10.874;2023-02-19T07:41:20;8.30;99.90
9450;DHT22;4763;48.370;10.874;2023-02-19T07:44:07;8.30;99.90
9450;DHT22;4763;48.370;10.874;2023-02-19T07:46:54;8.30;99.90
9450;DHT22;4763;48.370;10.874;2023-02-19T07:49:41;8.30;99.90
9450;DHT22;4763;48.370;10.874;2023-02-19T07:52:29;8.40;99.90
9450;DHT22;4763;48.370;10.874;2023-02-19T07:55:16;8.40;99.90
9450;DHT22;4763;48.370;10.874;2023-02-19T07:58:05;8.40;99.90
9450;DHT22;4763;48.370;10.874;2023-02-19T08:00:52;8.40;99.90
9450;DHT22;4763;48.370;10.874;2023-02-19T08:03:40;8.50;99.90
9450;DHT22;4763;48.370;10.874;2023-02-19T08:06:27;8.50;99.90
9450;DHT22;4763;48.370;10.874;2023-02-19T08:09:16;8.60;99.90
9450;DHT22;4763;48.370;10.874;2023-02-19T08:12:03;8.60;99.90
9450;DHT22;4763;48.370;10.874;2023-02-19T08:15:08;8.70;99.90
9450;DHT22;4763;48.370;10.874;2023-02-19T08:17:55;8.70;99.90
9450;DHT22;4763;48.370;10.874;2023-02-19T08:20:42;8.70;99.90
9450;DHT22;4763;48.370;10.874;2023-02-19T08:23:29;8.70;99.90
9450;DHT22;4763;48.370;10.874;2023-02-19T08:26:18;8.80;99.90
9450;DHT22;4763;48.370;10.874;2023-02-19T08:29:05;8.80;99.90
9450;DHT22;4763;48.370;10.874;2023-02-19T08:31:53;8.90;99.90
9450;DHT22;4763;48.370;10.874;2023-02-19T08:34:40;8.90;99.90
9450;DHT22;4763;48.370;10.874;2023-02-19T08:37:27;8.90;99.90
9450;DHT22;4763;48.370;10.874;2023-02-19T08:40:14;8.80;99.90
9450;DHT22;4763;48.370;10.874;2023-02-19T08:43:03;8.90;99.90
9450;DHT22;4763;48.370;10.874;2023-02-19T08:45:52;8.90;99.90
9450;DHT22;4763;48.370;10.874;2023-02-19T08:48:40;8.80;99.90
9450;DHT22;4763;48.370;10.874;2023-02-19T08:51:27;8.80;99.90
9450;DHT22;4763;48.370;10.874;2023-02-19T08:54:14;8.90;99.90
9450;DHT22;4763;48.370;10.874;2023-02-19T08:57:01;8.90;99.90
9450;DHT22;4763;48.370;10.874;2023-02-19T08:59:51;8.80;99.90
9450;DHT22;4763;48.370;10.874;2023-02-19T09:02:38;8.80;99.90
9450;DHT22;4763;48.370;10.874;2023-02-19T09:05:25;8.80;99.90
9450;DHT22;4763;48.370;10.874;2023-02-19T09:08:12;8.80;99.90
9450;DHT22;4763;48.370;10.874;2023-02-19T09:11:01;8.80;99.90
9450;DHT22;4763;48.370;10.874;2023-02-19T09:13:49;8.80;99.90
9450;DHT22;4763;48.370;10.874;2023-02-19T09:16:37;8.80;99.90
9450;DHT22;4763;48.370;10.874;2023-02-19T09:19:24;9.00;99.90
9450;DHT22;4763;48.370;10.874;2023-02-19T09:22:12;9.20;99.90
9450;DHT22;4763;48.370;10.874;2023-02-19T09:24:59;9.50;99.90
9450;DHT22;4763;48.370;10.874;2023-02-19T09:27:46;9.70;99.90
9450;DHT22;4763;48.370;10.874;2023-02-19T09:30:33;9.80;99.90
9450;DHT22;4763;48.370;10.874;2023-02-19T09:33:22;9.90;99.90
9450;DHT22;4763;48.370;10.874;2023-02-19T09:36:09;10.00;99.90
9450;DHT22;4763;48.370;10.874;2023-02-19T09:38:56;10.00;99.90
9450;DHT22;4763;48.370;10.874;2023-02-19T09:41:46;10.10;99.90
9450;DHT22;4763;48.370;10.874;2023-02-19T09:44:38;10.10;99.90
9450;DHT22;4763;48.370;10.874;2023-02-19T09:47:27;10.10;99.90
9450;DHT22;4763;48.370;10.874;2023-02-19T09:50:20;10.10;99.90
9450;DHT22;4763;48.370;10.874;2023-02-19T09:53:13;10.10;99.90
9450;DHT22;4763;48.370;10.874;2023-02-19T09:56:04;10.10;99.90
9450;DHT22;4763;48.370;10.874;2023-02-19T09:58:54;10.20;99.90
9450;DHT22;4763;48.370;10.874;2023-02-19T10:01:43;10.20;99.90
9450;DHT22;4763;48.370;10.874;2023-02-19T10:04:30;10.20;99.90
9450;DHT22;4763;48.370;10.874;2023-02-19T10:07:21;10.10;99.90
9450;DHT22;4763;48.370;10.874;2023-02-19T10:10:23;10.10;99.90
9450;DHT22;4763;48.370;10.874;2023-02-19T10:13:18;10.10;99.90
9450;DHT22;4763;48.370;10.874;2023-02-19T10:16:08;10.10;99.90
9450;DHT22;4763;48.370;10.874;2023-02-19T10:18:59;10.10;99.90
9450;DHT22;4763;48.370;10.874;2023-02-19T10:21:47;10.10;99.90
9450;DHT22;4763;48.370;10.874;2023-02-19T10:24:35;10.20;99.90
9450;DHT22;4763;48.370;10.874;2023-02-19T10:27:25;10.30;99.90
9450;DHT22;4763;48.370;10.874;2023-02-19T10:30:18;10.30;99.90
9450;DHT22;4763;48.370;10.874;2023-02-19T10:33:09;10.70;99.90
9450;DHT22;4763;48.370;10.874;2023-02-19T10:35:58;10.80;99.90
9450;DHT22;4763;48.370;10.874;2023-02-19T10:38:46;11.10;99.90
9450;DHT22;4763;48.370;10.874;2023-02-19T10:41:40;11.30;99.90
9450;DHT22;4763;48.370;10.874;2023-02-19T10:44:29;11.40;99.90
9450;DHT22;4763;48.370;10.874;2023-02-19T10:47:20;11.20;99.90
9450;DHT22;4763;48.370;10.874;2023-02-19T10:50:19;11.10;99.90
9450;DHT22;4763;48.370;10.874;2023-02-19T10:53:19;11.00;99.90
9450;DHT22;4763;48.370;10.874;2023-02-19T10:56:09;10.70;99.90
9450;DHT22;4763;48.370;10.874;2023-02-19T10:59:14;10.50;99.90
9450;DHT22;4763;48.370;10.874;2023-02-19T11:02:07;10.60;99.90
9450;DHT22;4763;48.370;10.874;2023-02-19T11:05:05;10.70;99.90
9450;DHT22;4763;48.370;10.874;2023-02-19T11:07:54;11.10;99.90
9450;DHT22;4763;48.370;10.874;2023-02-19T11:10:41;11.30;99.90
9450;DHT22;4763;48.370;10.874;2023-02-19T11:13:33;11.70;99.90
9450;DHT22;4763;48.370;10.874;2023-02-19T11:16:37;11.80;99.90
9450;DHT22;4763;48.370;10.874;2023-02-19T11:19:28;11.80;99.90
9450;DHT22;4763;48.370;10.874;2023-02-19T11:25:19;12.00;99.90
9450;DHT22;4763;48.370;10.874;2023-02-19T11:28:21;11.90;99.90
9450;DHT22;4763;48.370;10.874;2023-02-19T11:31:23;12.10;99.90
9450;DHT22;4763;48.370;10.874;2023-02-19T11:34:25;12.20;99.90
9450;DHT22;4763;48.370;10.874;2023-02-19T11:37:15;12.00;99.90
9450;DHT22;4763;48.370;10.874;2023-02-19T11:40:02;11.50;99.90
9450;DHT22;4763;48.370;10.874;2023-02-19T11:42:54;11.30;99.90
9450;DHT22;4763;48.370;10.874;2023-02-19T11:45:48;11.10;99.90
9450;DHT22;4763;48.370;10.874;2023-02-19T11:48:52;10.80;99.90
9450;DHT22;4763;48.370;10.874;2023-02-19T11:52:06;10.30;99.90
9450;DHT22;4763;48.370;10.874;2023-02-19T11:55:06;10.20;99.90
9450;DHT22;4763;48.370;10.874;2023-02-19T11:58:08;10.00;99.90
9450;DHT22;4763;48.370;10.874;2023-02-19T12:01:07;9.90;99.90
9450;DHT22;4763;48.370;10.874;2023-02-19T12:04:31;10.10;99.90
9450;DHT22;4763;48.370;10.874;2023-02-19T12:07:51;10.40;99.90
9450;DHT22;4763;48.370;10.874;2023-02-19T12:10:55;10.90;99.90
9450;DHT22;4763;48.370;10.874;2023-02-19T12:14:01;10.90;99.90
9450;DHT22;4763;48.370;10.874;2023-02-19T12:16:55;11.10;99.90
9450;DHT22;4763;48.370;10.874;2023-02-19T12:19:56;11.40;99.90
9450;DHT22;4763;48.370;10.874;2023-02-19T12:22:54;11.70;99.90
9450;DHT22;4763;48.370;10.874;2023-02-19T12:25:56;11.40;99.90
9450;DHT22;4763;48.370;10.874;2023-02-19T12:32:19;11.50;99.90
9450;DHT22;4763;48.370;10.874;2023-02-19T12:35:23;11.90;99.90
9450;DHT22;4763;48.370;10.874;2023-02-19T12:38:21;11.90;99.90
9450;DHT22;4763;48.370;10.874;2023-02-19T12:41:25;12.00;99.90
9450;DHT22;4763;48.370;10.874;2023-02-19T12:44:17;12.10;99.90
9450;DHT22;4763;48.370;10.874;2023-02-19T12:47:06;12.10;99.90
9450;DHT22;4763;48.370;10.874;2023-02-19T12:49:59;12.20;99.90
9450;DHT22;4763;48.370;10.874;2023-02-19T12:52:52;12.10;99.90
9450;DHT22;4763;48.370;10.874;2023-02-19T12:55:43;11.90;99.90
9450;DHT22;4763;48.370;10.874;2023-02-19T12:58:44;11.70;99.90
9450;DHT22;4763;48.370;10.874;2023-02-19T13:01:34;11.70;99.90
9450;DHT22;4763;48.370;10.874;2023-02-19T13:04:33;11.70;99.90
9450;DHT22;4763;48.370;10.874;2023-02-19T13:07:26;11.60;99.90
9450;DHT22;4763;48.370;10.874;2023-02-19T13:10:23;11.80;99.90
9450;DHT22;4763;48.370;10.874;2023-02-19T13:13:16;11.70;99.90
9450;DHT22;4763;48.370;10.874;2023-02-19T13:16:07;11.60;99.90
9450;DHT22;4763;48.370;10.874;2023-02-19T13:18:58;11.80;99.90
9450;DHT22;4763;48.370;10.874;2023-02-19T13:21:50;11.70;99.90
9450;DHT22;4763;48.370;10.874;2023-02-19T13:25:00;11.70;99.90
9450;DHT22;4763;48.370;10.874;2023-02-19T13:28:06;11.80;99.90
9450;DHT22;4763;48.370;10.874;2023-02-19T13:31:10;12.10;99.90
9450;DHT22;4763;48.370;10.874;2023-02-19T13:34:08;12.20;99.90
9450;DHT22;4763;48.370;10.874;2023-02-19T13:36:58;12.00;99.90
9450;DHT22;4763;48.370;10.874;2023-02-19T13:39:46;11.80;99.90
9450;DHT22;4763;48.370;10.874;2023-02-19T13:42:35;11.50;99.90
9450;DHT22;4763;48.370;10.874;2023-02-19T13:45:28;11.50;99.90
9450;DHT22;4763;48.370;10.874;2023-02-19T13:48:25;11.60;99.90
9450;DHT22;4763;48.370;10.874;2023-02-19T13:51:42;11.70;99.90
9450;DHT22;4763;48.370;10.874;2023-02-19T13:54:34;11.90;99.90
9450;DHT22;4763;48.370;10.874;2023-02-19T13:57:26;12.00;99.90
9450;DHT22;4763;48.370;10.874;2023-02-19T14:00:49;11.90;99.90
9450;DHT22;4763;48.370;10.874;2023-02-19T14:03:45;11.90;99.90
9450;DHT22;4763;48.370;10.874;2023-02-19T14:10:07;11.60;99.90
9450;DHT22;4763;48.370;10.874;2023-02-19T14:12:56;11.50;99.90
9450;DHT22;4763;48.370;10.874;2023-02-19T14:15:48;11.30;99.90
9450;DHT22;4763;48.370;10.874;2023-02-19T14:18:43;11.40;99.90
9450;DHT22;4763;48.370;10.874;2023-02-19T14:21:35;11.40;99.90
9450;DHT22;4763;48.370;10.874;2023-02-19T14:24:22;11.50;99.90
9450;DHT22;4763;48.370;10.874;2023-02-19T14:27:13;11.20;99.90
9450;DHT22;4763;48.370;10.874;2023-02-19T14:30:00;10.90;99.90
9450;DHT22;4763;48.370;10.874;2023-02-19T14:32:48;10.90;99.90
9450;DHT22;4763;48.370;10.874;2023-02-19T14:35:38;10.90;99.90
9450;DHT22;4763;48.370;10.874;2023-02-19T14:38:29;10.80;99.90
9450;DHT22;4763;48.370;10.874;2023-02-19T14:41:18;10.80;99.90
9450;DHT22;4763;48.370;10.874;2023-02-19T14:44:14;10.80;99.90
9450;DHT22;4763;48.370;10.874;2023-02-19T14:47:04;10.80;99.90
9450;DHT22;4763;48.370;10.874;2023-02-19T14:49:53;10.90;99.90
9450;DHT22;4763;48.370;10.874;2023-02-19T14:52:43;10.90;99.90
9450;DHT22;4763;48.370;10.874;2023-02-19T14:55:33;10.80;99.90
9450;DHT22;4763;48.370;10.874;2023-02-19T14:58:24;10.80;99.90
9450;DHT22;4763;48.370;10.874;2023-02-19T15:01:26;10.70;99.90
9450;DHT22;4763;48.370;10.874;2023-02-19T15:04:20;10.70;99.90
9450;DHT22;4763;48.370;10.874;2023-02-19T15:07:10;10.70;99.90
9450;DHT22;4763;48.370;10.874;2023-02-19T15:10:01;10.70;99.90
9450;DHT22;4763;48.370;10.874;2023-02-19T15:12:51;10.60;99.90
9450;DHT22;4763;48.370;10.874;2023-02-19T15:15:43;10.60;99.90
9450;DHT22;4763;48.370;10.874;2023-02-19T15:18:32;10.70;99.90
9450;DHT22;4763;48.370;10.874;2023-02-19T15:21:24;11.30;99.90
9450;DHT22;4763;48.370;10.874;2023-02-19T15:24:13;11.20;99.90
9450;DHT22;4763;48.370;10.874;2023-02-19T15:27:02;10.70;99.90
9450;DHT22;4763;48.370;10.874;2023-02-19T15:29:51;10.60;99.90
9450;DHT22;4763;48.370;10.874;2023-02-19T15:32:38;10.40;99.90
9450;DHT22;4763;48.370;10.874;2023-02-19T15:35:28;10.30;99.90
9450;DHT22;4763;48.370;10.874;2023-02-19T15:38:18;10.20;99.90
9450;DHT22;4763;48.370;10.874;2023-02-19T15:41:05;10.20;99.90
9450;DHT22;4763;48.370;10.874;2023-02-19T15:43:55;10.30;99.90
9450;DHT22;4763;48.370;10.874;2023-02-19T15:46:45;10.30;99.90
9450;DHT22;4763;48.370;10.874;2023-02-19T15:49:38;10.30;99.90
9450;DHT22;4763;48.370;10.874;2023-02-19T15:52:35;10.30;99.90
9450;DHT22;4763;48.370;10.874;2023-02-19T15:55:30;10.20;99.90
9450;DHT22;4763;48.370;10.874;2023-02-19T15:58:21;10.20;99.90
9450;DHT22;4763;48.370;10.874;2023-02-19T16:01:15;10.20;99.90
9450;DHT22;4763;48.370;10.874;2023-02-19T16:04:05;10.10;99.90
9450;DHT22;4763;48.370;10.874;2023-02-19T16:06:56;10.10;99.90
9450;DHT22;4763;48.370;10.874;2023-02-19T16:09:45;10.00;99.90
9450;DHT22;4763;48.370;10.874;2023-02-19T16:12:32;10.10;99.90
9450;DHT22;4763;48.370;10.874;2023-02-19T16:15:19;10.00;99.90
9450;DHT22;4763;48.370;10.874;2023-02-19T16:18:12;9.90;99.90
9450;DHT22;4763;48.370;10.874;2023-02-19T16:21:00;9.80;99.90
9450;DHT22;4763;48.370;10.874;2023-02-19T16:23:55;9.70;99.90
9450;DHT22;4763;48.370;10.874;2023-02-19T16:26:46;9.70;99.90
9450;DHT22;4763;48.370;10.874;2023-02-19T16:29:33;9.60;99.90
9450;DHT22;4763;48.370;10.874;2023-02-19T16:32:20;9.60;99.90
9450;DHT22;4763;48.370;10.874;2023-02-19T16:35:35;9.60;99.90
9450;DHT22;4763;48.370;10.874;2023-02-19T16:38:24;9.60;99.90
9450;DHT22;4763;48.370;10.874;2023-02-19T16:41:12;9.50;99.90
9450;DHT22;4763;48.370;10.874;2023-02-19T16:44:29;9.50;99.90
9450;DHT22;4763;48.370;10.874;2023-02-19T16:47:27;9.50;99.90
9450;DHT22;4763;48.370;10.874;2023-02-19T16:50:21;9.50;99.90
9450;DHT22;4763;48.370;10.874;2023-02-19T16:53:16;9.50;99.90
9450;DHT22;4763;48.370;10.874;2023-02-19T16:56:04;9.40;99.90
9450;DHT22;4763;48.370;10.874;2023-02-19T16:58:51;9.40;99.90
9450;DHT22;4763;48.370;10.874;2023-02-19T17:01:40;9.30;99.90
9450;DHT22;4763;48.370;10.874;2023-02-19T17:04:28;9.30;99.90
9450;DHT22;4763;48.370;10.874;2023-02-19T17:07:16;9.30;99.90
9450;DHT22;4763;48.370;10.874;2023-02-19T17:10:04;9.20;99.90
9450;DHT22;4763;48.370;10.874;2023-02-19T17:12:54;9.30;99.90
9450;DHT22;4763;48.370;10.874;2023-02-19T17:15:41;9.30;99.90
9450;DHT22;4763;48.370;10.874;2023-02-19T17:18:30;9.30;99.90
9450;DHT22;4763;48.370;10.874;2023-02-19T17:21:19;9.20;99.90
9450;DHT22;4763;48.370;10.874;2023-02-19T17:24:07;9.20;99.90
9450;DHT22;4763;48.370;10.874;2023-02-19T17:26:54;9.20;99.90
9450;DHT22;4763;48.370;10.874;2023-02-19T17:29:42;9.20;99.90
9450;DHT22;4763;48.370;10.874;2023-02-19T17:32:29;9.10;99.90
9450;DHT22;4763;48.370;10.874;2023-02-19T17:35:17;9.20;99.90
9450;DHT22;4763;48.370;10.874;2023-02-19T17:38:04;9.10;99.90
9450;DHT22;4763;48.370;10.874;2023-02-19T17:40:54;9.20;99.90
9450;DHT22;4763;48.370;10.874;2023-02-19T17:43:41;9.10;99.90
9450;DHT22;4763;48.370;10.874;2023-02-19T17:46:28;9.10;99.90
9450;DHT22;4763;48.370;10.874;2023-02-19T17:49:15;9.10;99.90
9450;DHT22;4763;48.370;10.874;2023-02-19T17:52:04;9.00;99.90
9450;DHT22;4763;48.370;10.874;2023-02-19T17:54:51;9.00;99.90
9450;DHT22;4763;48.370;10.874;2023-02-19T17:57:38;8.90;99.90
9450;DHT22;4763;48.370;10.874;2023-02-19T18:00:27;8.90;99.90
9450;DHT22;4763;48.370;10.874;2023-02-19T18:03:14;8.90;99.90
9450;DHT22;4763;48.370;10.874;2023-02-19T18:06:01;8.80;99.90
9450;DHT22;4763;48.370;10.874;2023-02-19T18:08:51;8.90;99.90
9450;DHT22;4763;48.370;10.874;2023-02-19T18:11:39;8.80;99.90
9450;DHT22;4763;48.370;10.874;2023-02-19T18:14:29;8.80;99.90
9450;DHT22;4763;48.370;10.874;2023-02-19T18:17:16;8.80;99.90
9450;DHT22;4763;48.370;10.874;2023-02-19T18:20:04;8.80;99.90
9450;DHT22;4763;48.370;10.874;2023-02-19T18:22:52;8.80;99.90
9450;DHT22;4763;48.370;10.874;2023-02-19T18:25:40;8.80;99.90
9450;DHT22;4763;48.370;10.874;2023-02-19T18:28:27;8.70;99.90
9450;DHT22;4763;48.370;10.874;2023-02-19T18:31:14;8.70;99.90
9450;DHT22;4763;48.370;10.874;2023-02-19T18:34:02;8.70;99.90
9450;DHT22;4763;48.370;10.874;2023-02-19T18:36:49;8.70;99.90
9450;DHT22;4763;48.370;10.874;2023-02-19T18:39:36;8.70;99.90